sensor_id;sensor_type;location;lat;lon;timestamp;pressure;altitude;pressure_sealevel;temperature;humidity
20710;BME280;10516;51.518;9.864;2024-01-15T00:02:02;97065.47;;;0.31;89.74
20710;BME280;10516;51.518;9.864;2024-01-15T00:04:28;97060.22;;;0.31;89.79
20710;BME280;10516;51.518;9.864;2024-01-15T00:06:53;97076.88;;;0.25;90.10
20710;BME280;10516;51.518;9.864;2024-01-15T00:09:19;97022.69;;;-0.05;90.09
20710;BME280;10516;51.518;9.864;2024-01-15T00:11:44;97071.53;;;0.31;90.24
20710;BME280;10516;51.518;9.864;2024-01-15T00:14:10;97055.47;;;0.28;90.26
20710;BME280;10516;51.518;9.864;2024-01-15T00:16:35;97062.41;;;0.34;90.30
20710;BME280;10516;51.518;9.864;2024-01-15T00:19:00;97055.47;;;0.39;89.73
20710;BME280;10516;51.518;9.864;2024-01-15T00:21:26;97061.72;;;0.38;89.72
20710;BME280;10516;51.518;9.864;2024-01-15T00:23:53;97049.84;;;0.24;90.12
20710;BME280;10516;51.518;9.864;2024-01-15T00:26:18;97058.66;;;0.30;90.41
20710;BME280;10516;51.518;9.864;2024-01-15T00:28:44;97046.78;;;0.27;89.59
20710;BME280;10516;51.518;9.864;2024-01-15T00:31:09;97052.25;;;0.26;90.08
20710;BME280;10516;51.518;9.864;2024-01-15T00:33:34;97062.97;;;0.36;90.13
20710;BME280;10516;51.518;9.864;2024-01-15T00:36:00;97061.97;;;0.37;90.08
20710;BME280;10516;51.518;9.864;2024-01-15T00:38:25;97067.31;;;0.42;89.97
20710;BME280;10516;51.518;9.864;2024-01-15T00:40:51;97046.09;;;0.32;89.52
20710;BME280;10516;51.518;9.864;2024-01-15T00:43:16;97041.78;;;0.26;89.50
20710;BME280;10516;51.518;9.864;2024-01-15T00:45:44;97065.72;;;0.41;89.62
20710;BME280;10516;51.518;9.864;2024-01-15T00:48:09;97062.53;;;0.39;89.76
20710;BME280;10516;51.518;9.864;2024-01-15T00:50:35;97059.91;;;0.39;90.01
20710;BME280;10516;51.518;9.864;2024-01-15T00:53:00;97053.84;;;0.38;90.21
20710;BME280;10516;51.518;9.864;2024-01-15T00:55:27;97040.97;;;0.25;90.58
20710;BME280;10516;51.518;9.864;2024-01-15T00:57:53;97056.47;;;0.38;90.26
20710;BME280;10516;51.518;9.864;2024-01-15T01:00:18;97041.09;;;0.30;90.16
20710;BME280;10516;51.518;9.864;2024-01-15T01:02:43;97048.38;;;0.40;90.03
20710;BME280;10516;51.518;9.864;2024-01-15T01:05:09;97035.16;;;0.35;90.19
20710;BME280;10516;51.518;9.864;2024-01-15T01:07:34;97044.47;;;0.31;90.38
20710;BME280;10516;51.518;9.864;2024-01-15T01:09:59;97039.13;;;0.37;90.32
20710;BME280;10516;51.518;9.864;2024-01-15T01:12:25;97047.00;;;0.26;90.66
20710;BME280;10516;51.518;9.864;2024-01-15T01:14:50;97044.16;;;0.39;90.20
20710;BME280;10516;51.518;9.864;2024-01-15T01:17:16;97042.69;;;0.43;90.33
20710;BME280;10516;51.518;9.864;2024-01-15T01:19:41;97036.88;;;0.41;89.90
20710;BME280;10516;51.518;9.864;2024-01-15T01:22:06;97045.19;;;0.38;90.11
20710;BME280;10516;51.518;9.864;2024-01-15T01:24:32;97046.56;;;0.40;90.40
20710;BME280;10516;51.518;9.864;2024-01-15T01:26:57;97030.38;;;0.43;89.92
20710;BME280;10516;51.518;9.864;2024-01-15T01:29:22;97019.28;;;0.30;90.12
20710;BME280;10516;51.518;9.864;2024-01-15T01:31:48;97010.38;;;0.31;89.92
20710;BME280;10516;51.518;9.864;2024-01-15T01:34:14;97030.69;;;0.47;90.07
20710;BME280;10516;51.518;9.864;2024-01-15T01:36:40;97023.06;;;0.34;90.69
20710;BME280;10516;51.518;9.864;2024-01-15T01:39:06;97038.44;;;0.42;89.79
20710;BME280;10516;51.518;9.864;2024-01-15T01:41:31;97032.75;;;0.45;89.85
20710;BME280;10516;51.518;9.864;2024-01-15T01:43:56;97012.44;;;0.40;89.75
20710;BME280;10516;51.518;9.864;2024-01-15T01:46:23;97035.38;;;0.45;90.41
20710;BME280;10516;51.518;9.864;2024-01-15T01:48:48;97041.63;;;0.44;89.72
20710;BME280;10516;51.518;9.864;2024-01-15T01:51:14;97034.00;;;0.31;90.23
20710;BME280;10516;51.518;9.864;2024-01-15T01:53:40;97035.63;;;0.43;89.44
20710;BME280;10516;51.518;9.864;2024-01-15T01:56:06;97043.38;;;0.50;89.70
20710;BME280;10516;51.518;9.864;2024-01-15T01:58:32;97036.88;;;0.52;89.82
20710;BME280;10516;51.518;9.864;2024-01-15T02:00:58;97020.31;;;0.29;89.16
20710;BME280;10516;51.518;9.864;2024-01-15T02:03:24;97038.34;;;0.37;89.32
20710;BME280;10516;51.518;9.864;2024-01-15T02:05:51;96989.41;;;0.08;89.99
20710;BME280;10516;51.518;9.864;2024-01-15T02:08:18;97049.06;;;0.47;89.16
20710;BME280;10516;51.518;9.864;2024-01-15T02:10:43;96996.25;;;0.20;88.53
20710;BME280;10516;51.518;9.864;2024-01-15T02:13:10;97042.91;;;0.53;88.91
20710;BME280;10516;51.518;9.864;2024-01-15T02:15:35;97020.44;;;0.45;89.14
20710;BME280;10516;51.518;9.864;2024-01-15T02:18:05;97027.28;;;0.35;89.09
20710;BME280;10516;51.518;9.864;2024-01-15T02:20:32;97020.31;;;0.29;88.89
20710;BME280;10516;51.518;9.864;2024-01-15T02:23:10;97009.59;;;0.30;88.23
20710;BME280;10516;51.518;9.864;2024-01-15T02:25:40;97022.50;;;0.43;87.91
20710;BME280;10516;51.518;9.864;2024-01-15T02:28:10;97025.91;;;0.32;87.19
20710;BME280;10516;51.518;9.864;2024-01-15T02:30:39;97011.75;;;0.33;86.77
20710;BME280;10516;51.518;9.864;2024-01-15T02:33:06;97009.59;;;0.19;86.79
20710;BME280;10516;51.518;9.864;2024-01-15T02:35:32;97015.97;;;0.23;87.29
20710;BME280;10516;51.518;9.864;2024-01-15T02:37:58;97036.16;;;0.34;86.55
20710;BME280;10516;51.518;9.864;2024-01-15T02:40:23;97018.97;;;0.26;86.27
20710;BME280;10516;51.518;9.864;2024-01-15T02:42:48;97018.72;;;0.39;86.94
20710;BME280;10516;51.518;9.864;2024-01-15T02:45:14;97022.38;;;0.38;86.62
20710;BME280;10516;51.518;9.864;2024-01-15T02:47:39;96990.44;;;0.30;85.88
20710;BME280;10516;51.518;9.864;2024-01-15T02:50:05;97003.66;;;0.23;86.13
20710;BME280;10516;51.518;9.864;2024-01-15T02:52:30;96995.69;;;0.30;86.23
20710;BME280;10516;51.518;9.864;2024-01-15T02:54:56;96967.19;;;0.10;86.31
20710;BME280;10516;51.518;9.864;2024-01-15T02:57:21;96988.72;;;0.24;86.08
20710;BME280;10516;51.518;9.864;2024-01-15T02:59:46;97006.28;;;0.23;86.04
20710;BME280;10516;51.518;9.864;2024-01-15T03:02:12;96985.19;;;0.18;85.89
20710;BME280;10516;51.518;9.864;2024-01-15T03:04:37;97017.03;;;0.22;85.77
20710;BME280;10516;51.518;9.864;2024-01-15T03:07:03;97015.41;;;0.21;85.62
20710;BME280;10516;51.518;9.864;2024-01-15T03:09:28;96966.34;;;-0.02;85.55
20710;BME280;10516;51.518;9.864;2024-01-15T03:11:53;97005.16;;;0.19;85.16
20710;BME280;10516;51.518;9.864;2024-01-15T03:14:19;97023.28;;;0.21;85.15
20710;BME280;10516;51.518;9.864;2024-01-15T03:16:45;96989.75;;;-0.01;85.40
20710;BME280;10516;51.518;9.864;2024-01-15T03:19:11;97008.56;;;0.08;84.67
20710;BME280;10516;51.518;9.864;2024-01-15T03:21:36;97007.66;;;0.14;84.91
20710;BME280;10516;51.518;9.864;2024-01-15T03:24:02;96992.03;;;0.08;84.57
20710;BME280;10516;51.518;9.864;2024-01-15T03:26:27;96990.88;;;0.04;85.56
20710;BME280;10516;51.518;9.864;2024-01-15T03:28:53;97014.41;;;0.22;85.41
20710;BME280;10516;51.518;9.864;2024-01-15T03:31:18;97014.03;;;0.18;85.44
20710;BME280;10516;51.518;9.864;2024-01-15T03:33:43;97021.69;;;0.20;85.67
20710;BME280;10516;51.518;9.864;2024-01-15T03:36:09;97006.84;;;0.14;85.32
20710;BME280;10516;51.518;9.864;2024-01-15T03:38:40;97012.56;;;0.22;85.18
20710;BME280;10516;51.518;9.864;2024-01-15T03:41:06;96996.94;;;0.27;85.44
20710;BME280;10516;51.518;9.864;2024-01-15T03:43:31;96991.13;;;0.25;84.98
20710;BME280;10516;51.518;9.864;2024-01-15T03:45:56;96993.84;;;0.19;85.05
20710;BME280;10516;51.518;9.864;2024-01-15T03:48:22;96997.16;;;0.14;85.23
20710;BME280;10516;51.518;9.864;2024-01-15T03:50:47;97019.84;;;0.20;85.18
20710;BME280;10516;51.518;9.864;2024-01-15T03:53:14;97018.72;;;0.16;86.33
20710;BME280;10516;51.518;9.864;2024-01-15T03:55:39;96989.41;;;0.08;85.71
20710;BME280;10516;51.518;9.864;2024-01-15T03:58:05;96976.06;;;0.09;85.35
20710;BME280;10516;51.518;9.864;2024-01-15T04:00:30;97003.66;;;0.12;85.71
20710;BME280;10516;51.518;9.864;2024-01-15T04:02:55;96999.44;;;0.22;85.55
20710;BME280;10516;51.518;9.864;2024-01-15T04:05:22;96988.41;;;0.09;85.35
20710;BME280;10516;51.518;9.864;2024-01-15T04:07:48;97010.72;;;0.23;85.37
20710;BME280;10516;51.518;9.864;2024-01-15T04:10:13;97003.66;;;0.23;85.67
20710;BME280;10516;51.518;9.864;2024-01-15T04:12:38;96978.34;;;0.17;86.06
20710;BME280;10516;51.518;9.864;2024-01-15T04:15:04;96982.78;;;0.17;85.83
20710;BME280;10516;51.518;9.864;2024-01-15T04:17:30;96985.66;;;0.15;85.80
20710;BME280;10516;51.518;9.864;2024-01-15T04:19:55;96960.88;;;0.11;86.04
20710;BME280;10516;51.518;9.864;2024-01-15T04:22:20;96992.13;;;0.24;85.18
20710;BME280;10516;51.518;9.864;2024-01-15T04:24:47;97001.25;;;0.33;84.74
20710;BME280;10516;51.518;9.864;2024-01-15T04:27:12;96972.31;;;0.17;84.94
20710;BME280;10516;51.518;9.864;2024-01-15T04:29:38;96949.50;;;0.06;84.63
20710;BME280;10516;51.518;9.864;2024-01-15T04:32:04;96988.50;;;0.25;85.05
20710;BME280;10516;51.518;9.864;2024-01-15T04:34:30;96979.72;;;0.20;84.54
20710;BME280;10516;51.518;9.864;2024-01-15T04:36:56;96972.75;;;0.14;85.20
20710;BME280;10516;51.518;9.864;2024-01-15T04:39:21;96970.94;;;0.14;85.16
20710;BME280;10516;51.518;9.864;2024-01-15T04:41:47;96970.03;;;0.09;85.22
20710;BME280;10516;51.518;9.864;2024-01-15T04:44:13;96978.34;;;0.17;85.47
20710;BME280;10516;51.518;9.864;2024-01-15T04:46:38;96979.38;;;0.16;85.60
20710;BME280;10516;51.518;9.864;2024-01-15T04:49:04;96973.19;;;0.22;85.33
20710;BME280;10516;51.518;9.864;2024-01-15T04:51:29;96948.00;;;0.10;85.03
20710;BME280;10516;51.518;9.864;2024-01-15T04:53:54;96974.69;;;0.30;85.27
20710;BME280;10516;51.518;9.864;2024-01-15T04:56:20;96953.16;;;0.28;84.43
20710;BME280;10516;51.518;9.864;2024-01-15T04:58:45;96933.44;;;0.02;85.07
20710;BME280;10516;51.518;9.864;2024-01-15T05:01:11;96978.00;;;0.37;84.46
20710;BME280;10516;51.518;9.864;2024-01-15T05:03:37;96971.84;;;0.31;84.62
20710;BME280;10516;51.518;9.864;2024-01-15T05:06:02;96980.19;;;0.28;84.89
20710;BME280;10516;51.518;9.864;2024-01-15T05:08:29;96973.00;;;0.24;85.08
20710;BME280;10516;51.518;9.864;2024-01-15T05:10:54;96970.59;;;0.22;85.34
20710;BME280;10516;51.518;9.864;2024-01-15T05:13:20;96975.84;;;0.34;84.51
20710;BME280;10516;51.518;9.864;2024-01-15T05:15:45;96954.75;;;0.17;84.53
20710;BME280;10516;51.518;9.864;2024-01-15T05:18:11;96966.13;;;0.34;85.34
20710;BME280;10516;51.518;9.864;2024-01-15T05:20:36;96944.91;;;0.24;85.11
20710;BME280;10516;51.518;9.864;2024-01-15T05:23:01;96943.78;;;0.20;84.74
20710;BME280;10516;51.518;9.864;2024-01-15T05:25:27;96959.97;;;0.29;84.97
20710;BME280;10516;51.518;9.864;2024-01-15T05:27:52;96967.41;;;0.32;84.86
20710;BME280;10516;51.518;9.864;2024-01-15T05:30:18;96955.53;;;0.18;85.05
20710;BME280;10516;51.518;9.864;2024-01-15T05:32:43;96969.78;;;0.33;85.13
20710;BME280;10516;51.518;9.864;2024-01-15T05:35:08;96953.59;;;0.25;85.67
20710;BME280;10516;51.518;9.864;2024-01-15T05:37:34;96971.16;;;0.36;85.66
20710;BME280;10516;51.518;9.864;2024-01-15T05:39:59;96970.91;;;0.37;85.51
20710;BME280;10516;51.518;9.864;2024-01-15T05:42:24;96947.44;;;0.19;86.20
20710;BME280;10516;51.518;9.864;2024-01-15T05:44:50;96975.84;;;0.34;86.10
20710;BME280;10516;51.518;9.864;2024-01-15T05:47:15;96970.34;;;0.35;86.30
20710;BME280;10516;51.518;9.864;2024-01-15T05:49:40;96970.69;;;0.39;86.01
20710;BME280;10516;51.518;9.864;2024-01-15T05:52:06;96928.41;;;0.12;86.74
20710;BME280;10516;51.518;9.864;2024-01-15T05:54:32;96938.53;;;0.20;86.69
20710;BME280;10516;51.518;9.864;2024-01-15T05:56:58;96963.28;;;0.36;87.28
20710;BME280;10516;51.518;9.864;2024-01-15T05:59:24;96958.50;;;0.33;87.14
20710;BME280;10516;51.518;9.864;2024-01-15T06:01:50;96970.25;;;0.30;87.01
20710;BME280;10516;51.518;9.864;2024-01-15T06:04:15;96965.34;;;0.34;87.47
20710;BME280;10516;51.518;9.864;2024-01-15T06:06:41;96967.97;;;0.34;87.34
20710;BME280;10516;51.518;9.864;2024-01-15T06:09:06;96955.53;;;0.29;87.60
20710;BME280;10516;51.518;9.864;2024-01-15T06:11:32;96948.69;;;0.28;87.23
20710;BME280;10516;51.518;9.864;2024-01-15T06:13:57;96967.97;;;0.34;87.80
20710;BME280;10516;51.518;9.864;2024-01-15T06:16:24;96959.41;;;0.38;87.33
20710;BME280;10516;51.518;9.864;2024-01-15T06:18:49;96944.91;;;0.24;87.33
20710;BME280;10516;51.518;9.864;2024-01-15T06:21:16;96969.44;;;0.41;87.61
20710;BME280;10516;51.518;9.864;2024-01-15T06:23:41;96969.66;;;0.40;87.42
20710;BME280;10516;51.518;9.864;2024-01-15T06:26:07;96955.28;;;0.31;87.66
20710;BME280;10516;51.518;9.864;2024-01-15T06:28:32;96977.66;;;0.45;87.69
20710;BME280;10516;51.518;9.864;2024-01-15T06:30:57;96949.59;;;0.22;87.62
20710;BME280;10516;51.518;9.864;2024-01-15T06:33:23;96960.13;;;0.11;87.40
20710;BME280;10516;51.518;9.864;2024-01-15T06:35:49;96927.72;;;0.05;88.21
20710;BME280;10516;51.518;9.864;2024-01-15T06:38:15;96966.59;;;0.31;87.89
20710;BME280;10516;51.518;9.864;2024-01-15T06:40:40;96961.56;;;0.18;88.37
20710;BME280;10516;51.518;9.864;2024-01-15T06:43:13;96973.56;;;0.26;88.30
20710;BME280;10516;51.518;9.864;2024-01-15T06:45:39;96975.25;;;0.20;88.79
20710;BME280;10516;51.518;9.864;2024-01-15T06:48:05;96979.72;;;0.31;88.24
20710;BME280;10516;51.518;9.864;2024-01-15T06:50:30;96954.63;;;0.12;88.56
20710;BME280;10516;51.518;9.864;2024-01-15T06:52:56;96938.44;;;0.15;88.75
20710;BME280;10516;51.518;9.864;2024-01-15T06:55:21;96953.63;;;0.13;88.56
20710;BME280;10516;51.518;9.864;2024-01-15T06:57:47;96961.38;;;0.20;88.57
20710;BME280;10516;51.518;9.864;2024-01-15T07:00:12;96951.78;;;0.14;88.34
20710;BME280;10516;51.518;9.864;2024-01-15T07:02:38;96929.78;;;0.03;88.83
20710;BME280;10516;51.518;9.864;2024-01-15T07:05:03;96961.81;;;0.17;89.08
20710;BME280;10516;51.518;9.864;2024-01-15T07:07:30;96970.25;;;0.30;88.49
20710;BME280;10516;51.518;9.864;2024-01-15T07:09:56;96966.25;;;0.28;88.62
20710;BME280;10516;51.518;9.864;2024-01-15T07:12:21;96970.47;;;0.29;88.69
20710;BME280;10516;51.518;9.864;2024-01-15T07:14:47;96963.53;;;0.34;88.22
20710;BME280;10516;51.518;9.864;2024-01-15T07:17:13;96961.47;;;0.25;88.54
20710;BME280;10516;51.518;9.864;2024-01-15T07:19:38;96977.88;;;0.32;88.49
20710;BME280;10516;51.518;9.864;2024-01-15T07:22:06;96960.53;;;0.31;88.54
20710;BME280;10516;51.518;9.864;2024-01-15T07:24:31;96948.34;;;0.25;87.82
20710;BME280;10516;51.518;9.864;2024-01-15T07:26:59;96974.56;;;0.36;88.58
20710;BME280;10516;51.518;9.864;2024-01-15T07:29:26;96972.88;;;0.30;88.11
20710;BME280;10516;51.518;9.864;2024-01-15T07:31:51;96958.28;;;0.23;88.26
20710;BME280;10516;51.518;9.864;2024-01-15T07:34:17;96964.78;;;0.20;88.62
20710;BME280;10516;51.518;9.864;2024-01-15T07:36:46;96986.56;;;0.32;88.52
20710;BME280;10516;51.518;9.864;2024-01-15T07:39:12;96983.00;;;0.27;88.68
20710;BME280;10516;51.518;9.864;2024-01-15T07:41:37;96988.50;;;0.25;88.73
20710;BME280;10516;51.518;9.864;2024-01-15T07:44:03;96987.56;;;0.31;88.53
20710;BME280;10516;51.518;9.864;2024-01-15T07:46:28;96965.81;;;0.08;89.24
20710;BME280;10516;51.518;9.864;2024-01-15T07:48:54;96987.94;;;0.23;88.73
20710;BME280;10516;51.518;9.864;2024-01-15T07:51:25;96978.44;;;0.22;89.09
20710;BME280;10516;51.518;9.864;2024-01-15T07:53:53;96999.31;;;0.29;89.25
20710;BME280;10516;51.518;9.864;2024-01-15T07:56:19;96980.28;;;0.22;89.40
20710;BME280;10516;51.518;9.864;2024-01-15T07:58:44;96982.56;;;0.30;89.07
20710;BME280;10516;51.518;9.864;2024-01-15T08:01:10;96975.81;;;0.22;88.86
20710;BME280;10516;51.518;9.864;2024-01-15T08:03:35;96957.03;;;0.02;89.03
20710;BME280;10516;51.518;9.864;2024-01-15T08:06:01;96981.31;;;0.21;89.47
20710;BME280;10516;51.518;9.864;2024-01-15T08:08:26;96969.69;;;0.17;89.19
20710;BME280;10516;51.518;9.864;2024-01-15T08:10:52;96954.75;;;0.06;89.10
20710;BME280;10516;51.518;9.864;2024-01-15T08:13:18;96958.06;;;0.13;88.93
20710;BME280;10516;51.518;9.864;2024-01-15T08:15:43;96978.25;;;0.24;89.35
20710;BME280;10516;51.518;9.864;2024-01-15T08:18:09;96963.31;;;0.13;89.23
20710;BME280;10516;51.518;9.864;2024-01-15T08:20:34;96981.75;;;0.18;89.61
20710;BME280;10516;51.518;9.864;2024-01-15T08:23:06;96976.41;;;0.24;89.13
20710;BME280;10516;51.518;9.864;2024-01-15T08:25:32;96978.34;;;0.29;89.38
20710;BME280;10516;51.518;9.864;2024-01-15T08:27:57;96973.88;;;0.29;89.47
20710;BME280;10516;51.518;9.864;2024-01-15T08:30:23;96976.06;;;0.32;88.94
20710;BME280;10516;51.518;9.864;2024-01-15T08:32:53;96988.38;;;0.32;89.01
20710;BME280;10516;51.518;9.864;2024-01-15T08:35:18;96994.06;;;0.29;89.49
20710;BME280;10516;51.518;9.864;2024-01-15T08:37:49;96987.94;;;0.35;89.58
20710;BME280;10516;51.518;9.864;2024-01-15T08:40:15;96988.81;;;0.29;89.21
20710;BME280;10516;51.518;9.864;2024-01-15T08:42:41;96981.06;;;0.34;89.51
20710;BME280;10516;51.518;9.864;2024-01-15T08:45:06;96970.00;;;0.32;89.41
20710;BME280;10516;51.518;9.864;2024-01-15T08:47:32;96974.56;;;0.36;89.39
20710;BME280;10516;51.518;9.864;2024-01-15T08:49:57;96958.88;;;0.13;89.95
20710;BME280;10516;51.518;9.864;2024-01-15T08:52:23;96979.25;;;0.23;89.52
20710;BME280;10516;51.518;9.864;2024-01-15T08:54:49;96976.06;;;0.32;89.59
20710;BME280;10516;51.518;9.864;2024-01-15T08:57:14;96982.91;;;0.33;89.21
20710;BME280;10516;51.518;9.864;2024-01-15T08:59:39;96982.00;;;0.28;89.09
20710;BME280;10516;51.518;9.864;2024-01-15T09:02:06;96979.13;;;0.29;89.39
20710;BME280;10516;51.518;9.864;2024-01-15T09:04:32;96976.28;;;0.31;89.37
20710;BME280;10516;51.518;9.864;2024-01-15T09:06:58;96980.63;;;0.25;89.60
20710;BME280;10516;51.518;9.864;2024-01-15T09:09:23;96991.69;;;0.27;89.67
20710;BME280;10516;51.518;9.864;2024-01-15T09:11:49;96983.56;;;0.29;89.83
20710;BME280;10516;51.518;9.864;2024-01-15T09:14:15;96990.88;;;0.27;90.00
20710;BME280;10516;51.518;9.864;2024-01-15T09:16:40;96983.13;;;0.32;89.25
20710;BME280;10516;51.518;9.864;2024-01-15T09:19:06;96994.53;;;0.37;89.42
20710;BME280;10516;51.518;9.864;2024-01-15T09:21:31;96998.63;;;0.33;89.80
20710;BME280;10516;51.518;9.864;2024-01-15T09:23:56;96995.00;;;0.34;89.35
20710;BME280;10516;51.518;9.864;2024-01-15T09:26:22;96985.75;;;0.32;89.58
20710;BME280;10516;51.518;9.864;2024-01-15T09:28:47;96991.25;;;0.30;89.38
20710;BME280;10516;51.518;9.864;2024-01-15T09:31:13;96993.50;;;0.38;88.58
20710;BME280;10516;51.518;9.864;2024-01-15T09:33:38;97000.25;;;0.34;89.24
20710;BME280;10516;51.518;9.864;2024-01-15T09:36:04;97000.00;;;0.36;89.37
20710;BME280;10516;51.518;9.864;2024-01-15T09:38:30;97007.88;;;0.36;89.81
20710;BME280;10516;51.518;9.864;2024-01-15T09:40:57;97000.81;;;0.36;89.37
20710;BME280;10516;51.518;9.864;2024-01-15T09:43:22;96992.69;;;0.38;89.68
20710;BME280;10516;51.518;9.864;2024-01-15T09:45:49;96995.81;;;0.35;90.11
20710;BME280;10516;51.518;9.864;2024-01-15T09:48:14;97007.88;;;0.36;90.07
20710;BME280;10516;51.518;9.864;2024-01-15T09:50:40;97004.34;;;0.42;89.61
20710;BME280;10516;51.518;9.864;2024-01-15T09:53:06;96996.81;;;0.34;89.94
20710;BME280;10516;51.518;9.864;2024-01-15T09:55:32;97010.25;;;0.37;90.07
20710;BME280;10516;51.518;9.864;2024-01-15T09:57:59;97011.53;;;0.35;90.19
20710;BME280;10516;51.518;9.864;2024-01-15T10:00:26;97009.94;;;0.45;89.60
20710;BME280;10516;51.518;9.864;2024-01-15T10:02:51;97001.84;;;0.47;89.43
20710;BME280;10516;51.518;9.864;2024-01-15T10:05:17;97005.03;;;0.49;89.45
20710;BME280;10516;51.518;9.864;2024-01-15T10:07:43;97007.63;;;0.37;89.22
20710;BME280;10516;51.518;9.864;2024-01-15T10:10:11;96998.97;;;0.48;89.66
20710;BME280;10516;51.518;9.864;2024-01-15T10:12:36;96995.44;;;0.43;89.51
20710;BME280;10516;51.518;9.864;2024-01-15T10:15:03;96994.53;;;0.37;89.93
20710;BME280;10516;51.518;9.864;2024-01-15T10:17:29;96993.50;;;0.38;89.75
20710;BME280;10516;51.518;9.864;2024-01-15T10:19:56;96992.38;;;0.46;89.93
20710;BME280;10516;51.518;9.864;2024-01-15T10:22:21;96983.47;;;0.47;89.58
20710;BME280;10516;51.518;9.864;2024-01-15T10:24:47;96975.72;;;0.40;89.77
20710;BME280;10516;51.518;9.864;2024-01-15T10:27:12;96965.53;;;0.44;89.32
20710;BME280;10516;51.518;9.864;2024-01-15T10:29:38;96975.47;;;0.42;89.94
20710;BME280;10516;51.518;9.864;2024-01-15T10:32:07;96979.25;;;0.46;89.58
20710;BME280;10516;51.518;9.864;2024-01-15T10:34:33;96970.34;;;0.47;89.57
20710;BME280;10516;51.518;9.864;2024-01-15T10:36:58;96972.16;;;0.46;90.03
20710;BME280;10516;51.518;9.864;2024-01-15T10:39:24;96976.03;;;0.44;89.47
20710;BME280;10516;51.518;9.864;2024-01-15T10:41:50;96975.34;;;0.48;89.67
20710;BME280;10516;51.518;9.864;2024-01-15T10:44:18;96975.03;;;0.45;89.63
20710;BME280;10516;51.518;9.864;2024-01-15T10:46:45;96972.97;;;0.47;90.01
20710;BME280;10516;51.518;9.864;2024-01-15T10:49:11;96976.41;;;0.47;89.93
20710;BME280;10516;51.518;9.864;2024-01-15T10:51:37;96976.84;;;0.56;89.66
20710;BME280;10516;51.518;9.864;2024-01-15T10:54:03;96963.97;;;0.43;89.89
20710;BME280;10516;51.518;9.864;2024-01-15T10:56:31;96966.91;;;0.46;90.10
20710;BME280;10516;51.518;9.864;2024-01-15T10:58:58;96961.66;;;0.46;89.59
20710;BME280;10516;51.518;9.864;2024-01-15T11:01:24;96964.75;;;0.43;89.77
20710;BME280;10516;51.518;9.864;2024-01-15T11:03:49;96953.72;;;0.41;90.63
20710;BME280;10516;51.518;9.864;2024-01-15T11:06:18;96955.03;;;0.44;90.10
20710;BME280;10516;51.518;9.864;2024-01-15T11:08:50;96970.34;;;0.47;90.06
20710;BME280;10516;51.518;9.864;2024-01-15T11:11:21;96957.78;;;0.37;90.41
20710;BME280;10516;51.518;9.864;2024-01-15T11:13:47;96961.34;;;0.43;90.48
20710;BME280;10516;51.518;9.864;2024-01-15T11:16:15;96968.84;;;0.51;90.40
20710;BME280;10516;51.518;9.864;2024-01-15T11:21:22;96962.09;;;0.55;89.45
20710;BME280;10516;51.518;9.864;2024-01-15T11:26:37;96968.41;;;0.54;89.66
20710;BME280;10516;51.518;9.864;2024-01-15T11:29:08;96972.59;;;0.55;89.63
20710;BME280;10516;51.518;9.864;2024-01-15T11:34:06;96953.78;;;0.46;89.47
20710;BME280;10516;51.518;9.864;2024-01-15T11:42:01;96965.22;;;0.52;89.76
20710;BME280;10516;51.518;9.864;2024-01-15T11:44:27;96959.16;;;0.40;89.81
20710;BME280;10516;51.518;9.864;2024-01-15T11:47:00;96963.28;;;0.36;90.21
20710;BME280;10516;51.518;9.864;2024-01-15T11:50:01;96960.16;;;0.50;89.65
20710;BME280;10516;51.518;9.864;2024-01-15T11:52:35;96966.69;;;0.48;89.90
20710;BME280;10516;51.518;9.864;2024-01-15T11:57:45;96954.03;;;0.56;89.11
20710;BME280;10516;51.518;9.864;2024-01-15T12:00:11;96956.72;;;0.61;88.95
20710;BME280;10516;51.518;9.864;2024-01-15T12:02:39;96963.94;;;0.54;89.12
20710;BME280;10516;51.518;9.864;2024-01-15T12:05:05;96964.03;;;0.59;88.90
20710;BME280;10516;51.518;9.864;2024-01-15T12:07:31;96958.91;;;0.53;89.40
20710;BME280;10516;51.518;9.864;2024-01-15T12:09:57;96960.03;;;0.57;88.82
20710;BME280;10516;51.518;9.864;2024-01-15T12:15:05;96952.78;;;0.36;89.10
20710;BME280;10516;51.518;9.864;2024-01-15T12:17:30;96951.41;;;0.56;89.02
20710;BME280;10516;51.518;9.864;2024-01-15T12:19:56;96966.09;;;0.57;89.11
20710;BME280;10516;51.518;9.864;2024-01-15T12:22:22;96956.41;;;0.58;88.67
20710;BME280;10516;51.518;9.864;2024-01-15T12:24:47;96954.44;;;0.65;88.63
20710;BME280;10516;51.518;9.864;2024-01-15T12:27:12;96961.41;;;0.59;88.80
20710;BME280;10516;51.518;9.864;2024-01-15T12:29:38;96960.16;;;0.62;88.89
20710;BME280;10516;51.518;9.864;2024-01-15T12:32:05;96952.63;;;0.65;88.59
20710;BME280;10516;51.518;9.864;2024-01-15T12:34:30;96949.09;;;0.60;88.50
20710;BME280;10516;51.518;9.864;2024-01-15T12:36:57;96952.28;;;0.62;88.92
20710;BME280;10516;51.518;9.864;2024-01-15T12:39:24;96947.03;;;0.62;88.41
20710;BME280;10516;51.518;9.864;2024-01-15T12:41:49;96946.47;;;0.60;88.79
20710;BME280;10516;51.518;9.864;2024-01-15T12:44:15;96964.94;;;0.65;88.30
20710;BME280;10516;51.518;9.864;2024-01-15T12:46:40;96965.66;;;0.60;87.64
20710;BME280;10516;51.518;9.864;2024-01-15T12:49:07;96954.41;;;0.37;88.27
20710;BME280;10516;51.518;9.864;2024-01-15T12:51:34;96966.91;;;0.58;88.19
20710;BME280;10516;51.518;9.864;2024-01-15T12:53:59;96958.81;;;0.48;88.07
20710;BME280;10516;51.518;9.864;2024-01-15T12:56:25;96961.78;;;0.51;88.02
20710;BME280;10516;51.518;9.864;2024-01-15T12:58:50;96959.72;;;0.53;88.06
20710;BME280;10516;51.518;9.864;2024-01-15T13:01:16;96969.09;;;0.49;88.20
20710;BME280;10516;51.518;9.864;2024-01-15T13:03:41;96955.06;;;0.32;88.32
20710;BME280;10516;51.518;9.864;2024-01-15T13:06:06;96962.47;;;0.47;87.83
20710;BME280;10516;51.518;9.864;2024-01-15T13:08:32;96961.44;;;0.48;87.17
20710;BME280;10516;51.518;9.864;2024-01-15T13:10:57;96965.53;;;0.44;88.04
20710;BME280;10516;51.518;9.864;2024-01-15T13:13:23;96948.97;;;0.55;87.51
20710;BME280;10516;51.518;9.864;2024-01-15T13:15:48;96946.72;;;0.58;86.78
20710;BME280;10516;51.518;9.864;2024-01-15T13:18:14;96956.84;;;0.55;87.36
20710;BME280;10516;51.518;9.864;2024-01-15T13:20:39;96955.72;;;0.51;87.50
20710;BME280;10516;51.518;9.864;2024-01-15T13:23:04;96961.53;;;0.53;87.40